sensor_id;sensor_type;location;lat;lon;timestamp;P1;durP1;ratioP1;P2;durP2;ratioP2
19137;SDS011;68178;52.188;5.598;2023-08-17T00:00:59;4.85;;;2.40;;
19137;SDS011;68178;52.188;5.598;2023-08-17T00:03:25;7.32;;;3.05;;
19137;SDS011;68178;52.188;5.598;2023-08-17T00:05:50;8.23;;;3.80;;
19137;SDS011;68178;52.188;5.598;2023-08-17T00:08:16;5.60;;;2.80;;
19137;SDS011;68178;52.188;5.598;2023-08-17T00:10:42;3.75;;;2.70;;
19137;SDS011;68178;52.188;5.598;2023-08-17T00:13:07;4.95;;;2.88;;
19137;SDS011;68178;52.188;5.598;2023-08-17T00:15:33;4.85;;;2.95;;
19137;SDS011;68178;52.188;5.598;2023-08-17T00:17:59;6.25;;;2.70;;
19137;SDS011;68178;52.188;5.598;2023-08-17T00:20:24;5.55;;;2.90;;
19137;SDS011;68178;52.188;5.598;2023-08-17T00:22:50;4.50;;;2.50;;
19137;SDS011;68178;52.188;5.598;2023-08-17T00:25:15;6.25;;;2.70;;
19137;SDS011;68178;52.188;5.598;2023-08-17T00:27:41;8.27;;;2.75;;
19137;SDS011;68178;52.188;5.598;2023-08-17T00:30:07;4.55;;;2.60;;
19137;SDS011;68178;52.188;5.598;2023-08-17T00:32:32;3.67;;;2.40;;
19137;SDS011;68178;52.188;5.598;2023-08-17T00:34:58;6.00;;;2.65;;
19137;SDS011;68178;52.188;5.598;2023-08-17T00:37:24;4.60;;;2.83;;
19137;SDS011;68178;52.188;5.598;2023-08-17T00:39:49;5.40;;;2.40;;
19137;SDS011;68178;52.188;5.598;2023-08-17T00:42:15;4.85;;;2.58;;
19137;SDS011;68178;52.188;5.598;2023-08-17T00:44:40;6.72;;;2.50;;
19137;SDS011;68178;52.188;5.598;2023-08-17T00:47:06;6.40;;;2.65;;
19137;SDS011;68178;52.188;5.598;2023-08-17T00:49:32;4.60;;;2.72;;
19137;SDS011;68178;52.188;5.598;2023-08-17T00:51:59;6.97;;;2.40;;
19137;SDS011;68178;52.188;5.598;2023-08-17T00:54:26;4.35;;;2.47;;
19137;SDS011;68178;52.188;5.598;2023-08-17T00:56:54;4.05;;;2.08;;
19137;SDS011;68178;52.188;5.598;2023-08-17T00:59:20;4.10;;;2.13;;
19137;SDS011;68178;52.188;5.598;2023-08-17T01:01:47;5.38;;;2.40;;
19137;SDS011;68178;52.188;5.598;2023-08-17T01:04:13;3.05;;;1.88;;
19137;SDS011;68178;52.188;5.598;2023-08-17T01:06:42;3.53;;;2.10;;
19137;SDS011;68178;52.188;5.598;2023-08-17T01:09:07;4.72;;;2.20;;
19137;SDS011;68178;52.188;5.598;2023-08-17T01:14:04;7.25;;;2.25;;
19137;SDS011;68178;52.188;5.598;2023-08-17T01:16:35;4.88;;;2.35;;
19137;SDS011;68178;52.188;5.598;2023-08-17T01:19:27;3.88;;;2.30;;
19137;SDS011;68178;52.188;5.598;2023-08-17T01:22:05;7.75;;;2.65;;
19137;SDS011;68178;52.188;5.598;2023-08-17T01:24:33;5.75;;;1.88;;
19137;SDS011;68178;52.188;5.598;2023-08-17T01:26:58;5.30;;;2.30;;
19137;SDS011;68178;52.188;5.598;2023-08-17T01:29:24;3.60;;;1.75;;
19137;SDS011;68178;52.188;5.598;2023-08-17T01:32:26;6.18;;;2.88;;
19137;SDS011;68178;52.188;5.598;2023-08-17T01:34:54;3.08;;;1.85;;
19137;SDS011;68178;52.188;5.598;2023-08-17T01:37:26;6.15;;;2.17;;
19137;SDS011;68178;52.188;5.598;2023-08-17T01:39:55;3.50;;;2.40;;
19137;SDS011;68178;52.188;5.598;2023-08-17T01:42:22;6.35;;;1.92;;
19137;SDS011;68178;52.188;5.598;2023-08-17T01:44:49;5.95;;;2.53;;
19137;SDS011;68178;52.188;5.598;2023-08-17T01:47:15;6.47;;;2.67;;
19137;SDS011;68178;52.188;5.598;2023-08-17T01:49:40;4.03;;;2.60;;
19137;SDS011;68178;52.188;5.598;2023-08-17T01:52:06;5.57;;;2.33;;
19137;SDS011;68178;52.188;5.598;2023-08-17T01:54:31;4.10;;;2.53;;
19137;SDS011;68178;52.188;5.598;2023-08-17T01:56:57;5.07;;;2.53;;
19137;SDS011;68178;52.188;5.598;2023-08-17T01:59:23;4.97;;;2.75;;
19137;SDS011;68178;52.188;5.598;2023-08-17T02:01:48;3.55;;;2.35;;
19137;SDS011;68178;52.188;5.598;2023-08-17T02:04:14;3.75;;;2.03;;
19137;SDS011;68178;52.188;5.598;2023-08-17T02:06:40;5.72;;;2.35;;
19137;SDS011;68178;52.188;5.598;2023-08-17T02:09:05;8.35;;;2.42;;
19137;SDS011;68178;52.188;5.598;2023-08-17T02:11:31;4.05;;;2.40;;
19137;SDS011;68178;52.188;5.598;2023-08-17T02:13:56;4.65;;;2.50;;
19137;SDS011;68178;52.188;5.598;2023-08-17T02:16:22;4.03;;;2.70;;
19137;SDS011;68178;52.188;5.598;2023-08-17T02:18:48;6.90;;;2.78;;
19137;SDS011;68178;52.188;5.598;2023-08-17T02:21:13;7.70;;;2.95;;
19137;SDS011;68178;52.188;5.598;2023-08-17T02:23:39;7.32;;;2.50;;
19137;SDS011;68178;52.188;5.598;2023-08-17T02:26:04;5.53;;;2.67;;
19137;SDS011;68178;52.188;5.598;2023-08-17T02:28:30;6.30;;;2.60;;
19137;SDS011;68178;52.188;5.598;2023-08-17T02:30:56;8.68;;;2.85;;
19137;SDS011;68178;52.188;5.598;2023-08-17T02:33:23;5.20;;;2.70;;
19137;SDS011;68178;52.188;5.598;2023-08-17T02:35:49;8.02;;;3.15;;
19137;SDS011;68178;52.188;5.598;2023-08-17T02:38:15;5.28;;;2.60;;
19137;SDS011;68178;52.188;5.598;2023-08-17T02:40:41;5.00;;;2.40;;
19137;SDS011;68178;52.188;5.598;2023-08-17T02:43:06;5.05;;;2.30;;
19137;SDS011;68178;52.188;5.598;2023-08-17T02:45:33;6.25;;;2.55;;
19137;SDS011;68178;52.188;5.598;2023-08-17T02:47:59;4.07;;;2.28;;
19137;SDS011;68178;52.188;5.598;2023-08-17T02:50:24;4.38;;;2.30;;
19137;SDS011;68178;52.188;5.598;2023-08-17T02:52:50;4.32;;;2.70;;
19137;SDS011;68178;52.188;5.598;2023-08-17T02:55:15;5.32;;;2.30;;
19137;SDS011;68178;52.188;5.598;2023-08-17T02:57:41;3.80;;;1.95;;
19137;SDS011;68178;52.188;5.598;2023-08-17T03:00:07;3.97;;;2.13;;
19137;SDS011;68178;52.188;5.598;2023-08-17T03:02:33;6.63;;;2.55;;
19137;SDS011;68178;52.188;5.598;2023-08-17T03:04:59;8.00;;;2.78;;
19137;SDS011;68178;52.188;5.598;2023-08-17T03:07:24;7.38;;;2.60;;
19137;SDS011;68178;52.188;5.598;2023-08-17T03:09:50;4.10;;;2.60;;
19137;SDS011;68178;52.188;5.598;2023-08-17T03:12:16;4.20;;;2.15;;
19137;SDS011;68178;52.188;5.598;2023-08-17T03:14:41;4.80;;;2.83;;
19137;SDS011;68178;52.188;5.598;2023-08-17T03:17:07;6.07;;;2.60;;
19137;SDS011;68178;52.188;5.598;2023-08-17T03:19:32;4.53;;;2.90;;
19137;SDS011;68178;52.188;5.598;2023-08-17T03:21:58;5.05;;;2.47;;
19137;SDS011;68178;52.188;5.598;2023-08-17T03:24:24;5.95;;;2.70;;
19137;SDS011;68178;52.188;5.598;2023-08-17T03:26:49;4.57;;;2.85;;
19137;SDS011;68178;52.188;5.598;2023-08-17T03:29:15;6.43;;;3.25;;
19137;SDS011;68178;52.188;5.598;2023-08-17T03:31:40;7.78;;;3.42;;
19137;SDS011;68178;52.188;5.598;2023-08-17T03:34:06;4.75;;;2.92;;
19137;SDS011;68178;52.188;5.598;2023-08-17T03:36:31;4.25;;;2.70;;
19137;SDS011;68178;52.188;5.598;2023-08-17T03:38:57;5.35;;;2.60;;
19137;SDS011;68178;52.188;5.598;2023-08-17T03:41:23;5.78;;;2.63;;
19137;SDS011;68178;52.188;5.598;2023-08-17T03:43:49;7.13;;;2.22;;
19137;SDS011;68178;52.188;5.598;2023-08-17T03:46:14;4.20;;;2.67;;
19137;SDS011;68178;52.188;5.598;2023-08-17T03:48:40;4.78;;;3.05;;
19137;SDS011;68178;52.188;5.598;2023-08-17T03:51:06;7.90;;;2.55;;
19137;SDS011;68178;52.188;5.598;2023-08-17T03:53:31;6.07;;;2.67;;
19137;SDS011;68178;52.188;5.598;2023-08-17T03:55:57;4.45;;;2.70;;
19137;SDS011;68178;52.188;5.598;2023-08-17T03:58:22;7.22;;;2.65;;
19137;SDS011;68178;52.188;5.598;2023-08-17T04:00:51;9.15;;;3.00;;
19137;SDS011;68178;52.188;5.598;2023-08-17T04:03:18;5.47;;;2.90;;
19137;SDS011;68178;52.188;5.598;2023-08-17T04:05:44;5.40;;;2.65;;
19137;SDS011;68178;52.188;5.598;2023-08-17T04:08:10;6.20;;;2.85;;
19137;SDS011;68178;52.188;5.598;2023-08-17T04:10:35;5.05;;;2.50;;
19137;SDS011;68178;52.188;5.598;2023-08-17T04:13:01;4.40;;;2.50;;
19137;SDS011;68178;52.188;5.598;2023-08-17T04:15:26;4.70;;;2.28;;
19137;SDS011;68178;52.188;5.598;2023-08-17T04:17:52;7.35;;;2.83;;
19137;SDS011;68178;52.188;5.598;2023-08-17T04:20:17;4.57;;;2.20;;
19137;SDS011;68178;52.188;5.598;2023-08-17T04:22:43;5.20;;;2.40;;
19137;SDS011;68178;52.188;5.598;2023-08-17T04:25:09;4.97;;;2.80;;
19137;SDS011;68178;52.188;5.598;2023-08-17T04:27:35;5.28;;;2.55;;
19137;SDS011;68178;52.188;5.598;2023-08-17T04:30:00;4.38;;;2.33;;
19137;SDS011;68178;52.188;5.598;2023-08-17T04:32:26;6.28;;;2.08;;
19137;SDS011;68178;52.188;5.598;2023-08-17T04:34:52;5.07;;;2.65;;
19137;SDS011;68178;52.188;5.598;2023-08-17T04:37:18;5.22;;;2.53;;
19137;SDS011;68178;52.188;5.598;2023-08-17T04:39:43;5.78;;;2.50;;
19137;SDS011;68178;52.188;5.598;2023-08-17T04:42:09;3.67;;;2.45;;
19137;SDS011;68178;52.188;5.598;2023-08-17T04:44:35;4.88;;;2.40;;
19137;SDS011;68178;52.188;5.598;2023-08-17T04:47:00;7.97;;;2.60;;
19137;SDS011;68178;52.188;5.598;2023-08-17T04:49:26;6.38;;;2.13;;
19137;SDS011;68178;52.188;5.598;2023-08-17T04:51:52;5.55;;;2.05;;
19137;SDS011;68178;52.188;5.598;2023-08-17T04:54:18;5.63;;;2.30;;
19137;SDS011;68178;52.188;5.598;2023-08-17T04:56:44;4.82;;;2.50;;
19137;SDS011;68178;52.188;5.598;2023-08-17T04:59:09;5.13;;;2.55;;
19137;SDS011;68178;52.188;5.598;2023-08-17T05:01:35;3.25;;;2.05;;
19137;SDS011;68178;52.188;5.598;2023-08-17T05:04:02;3.28;;;2.28;;
19137;SDS011;68178;52.188;5.598;2023-08-17T05:06:28;5.40;;;2.15;;
19137;SDS011;68178;52.188;5.598;2023-08-17T05:08:54;3.80;;;2.17;;
19137;SDS011;68178;52.188;5.598;2023-08-17T05:11:20;4.88;;;2.30;;
19137;SDS011;68178;52.188;5.598;2023-08-17T05:13:45;4.38;;;2.30;;
19137;SDS011;68178;52.188;5.598;2023-08-17T05:16:11;6.82;;;2.33;;
19137;SDS011;68178;52.188;5.598;2023-08-17T05:18:37;5.55;;;2.30;;
19137;SDS011;68178;52.188;5.598;2023-08-17T05:21:02;4.05;;;2.20;;
19137;SDS011;68178;52.188;5.598;2023-08-17T05:23:28;5.40;;;2.47;;
19137;SDS011;68178;52.188;5.598;2023-08-17T05:25:53;5.00;;;2.70;;
19137;SDS011;68178;52.188;5.598;2023-08-17T05:28:19;5.70;;;2.03;;
19137;SDS011;68178;52.188;5.598;2023-08-17T05:30:46;9.07;;;2.60;;
19137;SDS011;68178;52.188;5.598;2023-08-17T05:33:11;3.65;;;2.20;;
19137;SDS011;68178;52.188;5.598;2023-08-17T05:35:37;3.40;;;2.22;;
19137;SDS011;68178;52.188;5.598;2023-08-17T05:38:03;4.43;;;1.95;;
19137;SDS011;68178;52.188;5.598;2023-08-17T05:40:29;5.38;;;2.30;;
19137;SDS011;68178;52.188;5.598;2023-08-17T05:42:55;7.93;;;2.28;;
19137;SDS011;68178;52.188;5.598;2023-08-17T05:45:21;6.93;;;2.30;;
19137;SDS011;68178;52.188;5.598;2023-08-17T05:47:46;4.72;;;2.63;;
19137;SDS011;68178;52.188;5.598;2023-08-17T05:50:12;6.22;;;2.38;;
19137;SDS011;68178;52.188;5.598;2023-08-17T05:52:38;7.75;;;2.05;;
19137;SDS011;68178;52.188;5.598;2023-08-17T05:55:03;5.30;;;2.22;;
19137;SDS011;68178;52.188;5.598;2023-08-17T05:57:29;3.42;;;2.10;;
19137;SDS011;68178;52.188;5.598;2023-08-17T05:59:55;8.25;;;2.45;;
19137;SDS011;68178;52.188;5.598;2023-08-17T06:02:20;3.78;;;2.22;;
19137;SDS011;68178;52.188;5.598;2023-08-17T06:04:47;2.50;;;1.88;;
19137;SDS011;68178;52.188;5.598;2023-08-17T06:07:13;5.35;;;2.10;;
19137;SDS011;68178;52.188;5.598;2023-08-17T06:09:39;4.65;;;2.20;;
19137;SDS011;68178;52.188;5.598;2023-08-17T06:12:04;6.00;;;2.58;;
19137;SDS011;68178;52.188;5.598;2023-08-17T06:14:31;8.63;;;2.40;;
19137;SDS011;68178;52.188;5.598;2023-08-17T06:16:57;4.47;;;2.40;;
19137;SDS011;68178;52.188;5.598;2023-08-17T06:19:23;6.50;;;2.78;;
19137;SDS011;68178;52.188;5.598;2023-08-17T06:21:49;6.00;;;2.08;;
19137;SDS011;68178;52.188;5.598;2023-08-17T06:24:14;6.47;;;2.67;;
19137;SDS011;68178;52.188;5.598;2023-08-17T06:26:40;5.85;;;2.45;;
19137;SDS011;68178;52.188;5.598;2023-08-17T06:29:06;6.03;;;2.75;;
19137;SDS011;68178;52.188;5.598;2023-08-17T06:31:32;5.53;;;2.45;;
19137;SDS011;68178;52.188;5.598;2023-08-17T06:33:57;4.85;;;2.50;;
19137;SDS011;68178;52.188;5.598;2023-08-17T06:36:23;6.78;;;3.22;;
19137;SDS011;68178;52.188;5.598;2023-08-17T06:38:49;4.85;;;3.10;;
19137;SDS011;68178;52.188;5.598;2023-08-17T06:41:15;3.65;;;2.90;;
19137;SDS011;68178;52.188;5.598;2023-08-17T06:43:41;8.48;;;2.92;;
19137;SDS011;68178;52.188;5.598;2023-08-17T06:46:06;4.22;;;2.58;;
19137;SDS011;68178;52.188;5.598;2023-08-17T06:48:32;4.05;;;2.72;;
19137;SDS011;68178;52.188;5.598;2023-08-17T06:50:58;6.13;;;3.20;;
19137;SDS011;68178;52.188;5.598;2023-08-17T06:53:23;4.20;;;2.97;;
19137;SDS011;68178;52.188;5.598;2023-08-17T06:55:49;7.03;;;3.17;;
19137;SDS011;68178;52.188;5.598;2023-08-17T06:58:14;6.43;;;3.00;;
19137;SDS011;68178;52.188;5.598;2023-08-17T07:00:40;5.03;;;2.58;;
19137;SDS011;68178;52.188;5.598;2023-08-17T07:03:06;6.60;;;2.90;;
19137;SDS011;68178;52.188;5.598;2023-08-17T07:05:32;6.03;;;3.03;;
19137;SDS011;68178;52.188;5.598;2023-08-17T07:07:57;9.27;;;3.95;;
19137;SDS011;68178;52.188;5.598;2023-08-17T07:10:24;4.82;;;2.60;;
19137;SDS011;68178;52.188;5.598;2023-08-17T07:12:50;5.28;;;3.22;;
19137;SDS011;68178;52.188;5.598;2023-08-17T07:15:16;4.93;;;2.72;;
19137;SDS011;68178;52.188;5.598;2023-08-17T07:17:41;6.80;;;3.28;;
19137;SDS011;68178;52.188;5.598;2023-08-17T07:20:07;4.72;;;3.05;;
19137;SDS011;68178;52.188;5.598;2023-08-17T07:22:34;6.35;;;3.17;;
19137;SDS011;68178;52.188;5.598;2023-08-17T07:25:00;6.13;;;3.20;;
19137;SDS011;68178;52.188;5.598;2023-08-17T07:27:25;6.30;;;2.88;;
19137;SDS011;68178;52.188;5.598;2023-08-17T07:29:51;4.15;;;2.25;;
19137;SDS011;68178;52.188;5.598;2023-08-17T07:32:17;6.78;;;3.15;;
19137;SDS011;68178;52.188;5.598;2023-08-17T07:34:43;7.40;;;2.92;;
19137;SDS011;68178;52.188;5.598;2023-08-17T07:37:09;6.03;;;2.97;;
19137;SDS011;68178;52.188;5.598;2023-08-17T07:39:35;6.25;;;3.10;;
19137;SDS011;68178;52.188;5.598;2023-08-17T07:42:00;8.80;;;3.67;;
19137;SDS011;68178;52.188;5.598;2023-08-17T07:44:26;5.50;;;2.80;;
19137;SDS011;68178;52.188;5.598;2023-08-17T07:46:53;5.13;;;2.63;;
19137;SDS011;68178;52.188;5.598;2023-08-17T07:49:19;4.68;;;2.80;;
19137;SDS011;68178;52.188;5.598;2023-08-17T07:51:45;8.35;;;2.78;;
19137;SDS011;68178;52.188;5.598;2023-08-17T07:54:10;6.65;;;2.63;;
19137;SDS011;68178;52.188;5.598;2023-08-17T07:56:36;10.88;;;3.00;;
19137;SDS011;68178;52.188;5.598;2023-08-17T07:59:02;3.05;;;2.00;;
19137;SDS011;68178;52.188;5.598;2023-08-17T08:01:27;8.45;;;2.58;;
19137;SDS011;68178;52.188;5.598;2023-08-17T08:03:53;5.78;;;2.80;;
19137;SDS011;68178;52.188;5.598;2023-08-17T08:06:19;4.45;;;2.30;;
19137;SDS011;68178;52.188;5.598;2023-08-17T08:08:45;3.60;;;2.25;;
19137;SDS011;68178;52.188;5.598;2023-08-17T08:11:11;3.75;;;1.92;;
19137;SDS011;68178;52.188;5.598;2023-08-17T08:13:37;6.18;;;2.08;;
19137;SDS011;68178;52.188;5.598;2023-08-17T08:16:02;4.53;;;2.40;;
19137;SDS011;68178;52.188;5.598;2023-08-17T08:18:28;6.35;;;2.28;;
19137;SDS011;68178;52.188;5.598;2023-08-17T08:20:54;9.60;;;2.70;;
19137;SDS011;68178;52.188;5.598;2023-08-17T08:23:19;4.45;;;2.20;;
19137;SDS011;68178;52.188;5.598;2023-08-17T08:25:45;5.47;;;2.05;;
19137;SDS011;68178;52.188;5.598;2023-08-17T08:28:10;4.18;;;1.80;;
19137;SDS011;68178;52.188;5.598;2023-08-17T08:30:36;6.80;;;2.60;;
19137;SDS011;68178;52.188;5.598;2023-08-17T08:33:02;5.30;;;2.63;;
19137;SDS011;68178;52.188;5.598;2023-08-17T08:35:28;9.60;;;2.92;;
19137;SDS011;68178;52.188;5.598;2023-08-17T08:37:55;5.97;;;2.80;;
19137;SDS011;68178;52.188;5.598;2023-08-17T08:40:26;2.67;;;2.03;;
19137;SDS011;68178;52.188;5.598;2023-08-17T08:42:53;6.82;;;2.30;;
19137;SDS011;68178;52.188;5.598;2023-08-17T08:45:18;6.32;;;2.28;;
19137;SDS011;68178;52.188;5.598;2023-08-17T08:47:46;3.60;;;1.88;;
19137;SDS011;68178;52.188;5.598;2023-08-17T08:50:13;2.50;;;1.92;;
19137;SDS011;68178;52.188;5.598;2023-08-17T08:52:45;5.30;;;2.97;;
19137;SDS011;68178;52.188;5.598;2023-08-17T08:55:25;5.00;;;2.42;;
19137;SDS011;68178;52.188;5.598;2023-08-17T08:57:54;7.55;;;2.83;;
19137;SDS011;68178;52.188;5.598;2023-08-17T09:00:21;7.07;;;2.78;;
19137;SDS011;68178;52.188;5.598;2023-08-17T09:02:48;5.60;;;2.55;;
19137;SDS011;68178;52.188;5.598;2023-08-17T09:05:14;3.55;;;1.90;;
19137;SDS011;68178;52.188;5.598;2023-08-17T09:07:41;4.53;;;2.55;;
19137;SDS011;68178;52.188;5.598;2023-08-17T09:10:08;5.63;;;2.70;;
19137;SDS011;68178;52.188;5.598;2023-08-17T09:12:35;4.72;;;2.40;;
19137;SDS011;68178;52.188;5.598;2023-08-17T09:15:00;4.88;;;2.53;;
19137;SDS011;68178;52.188;5.598;2023-08-17T09:17:26;7.93;;;3.08;;
19137;SDS011;68178;52.188;5.598;2023-08-17T09:19:52;3.70;;;2.53;;
19137;SDS011;68178;52.188;5.598;2023-08-17T09:22:22;7.32;;;3.38;;
19137;SDS011;68178;52.188;5.598;2023-08-17T09:25:02;4.00;;;2.53;;
19137;SDS011;68178;52.188;5.598;2023-08-17T09:27:28;5.45;;;3.42;;
19137;SDS011;68178;52.188;5.598;2023-08-17T09:30:03;9.88;;;3.20;;
19137;SDS011;68178;52.188;5.598;2023-08-17T09:32:34;8.15;;;3.40;;
19137;SDS011;68178;52.188;5.598;2023-08-17T09:35:03;8.80;;;3.38;;
19137;SDS011;68178;52.188;5.598;2023-08-17T09:37:33;9.90;;;3.65;;
19137;SDS011;68178;52.188;5.598;2023-08-17T09:39:59;8.85;;;3.78;;
19137;SDS011;68178;52.188;5.598;2023-08-17T09:42:25;7.55;;;3.15;;
19137;SDS011;68178;52.188;5.598;2023-08-17T09:44:52;8.98;;;3.45;;
19137;SDS011;68178;52.188;5.598;2023-08-17T09:47:18;6.25;;;3.20;;
19137;SDS011;68178;52.188;5.598;2023-08-17T09:49:50;6.05;;;2.88;;
19137;SDS011;68178;52.188;5.598;2023-08-17T09:52:18;7.10;;;4.00;;
19137;SDS011;68178;52.188;5.598;2023-08-17T09:54:52;5.72;;;3.47;;
19137;SDS011;68178;52.188;5.598;2023-08-17T09:57:19;6.63;;;3.33;;
19137;SDS011;68178;52.188;5.598;2023-08-17T09:59:45;6.57;;;3.40;;
19137;SDS011;68178;52.188;5.598;2023-08-17T10:02:18;6.78;;;3.10;;
19137;SDS011;68178;52.188;5.598;2023-08-17T10:04:47;4.35;;;2.90;;
19137;SDS011;68178;52.188;5.598;2023-08-17T10:07:15;6.30;;;3.80;;
19137;SDS011;68178;52.188;5.598;2023-08-17T10:09:45;8.13;;;3.35;;
19137;SDS011;68178;52.188;5.598;2023-08-17T10:12:17;7.85;;;3.80;;
19137;SDS011;68178;52.188;5.598;2023-08-17T10:14:53;7.43;;;3.58;;
19137;SDS011;68178;52.188;5.598;2023-08-17T10:17:25;7.22;;;3.33;;
19137;SDS011;68178;52.188;5.598;2023-08-17T10:19:56;6.05;;;3.33;;
19137;SDS011;68178;52.188;5.598;2023-08-17T10:22:27;7.10;;;3.50;;
19137;SDS011;68178;52.188;5.598;2023-08-17T10:25:01;8.00;;;4.47;;
19137;SDS011;68178;52.188;5.598;2023-08-17T10:27:28;7.05;;;4.53;;
19137;SDS011;68178;52.188;5.598;2023-08-17T10:29:55;8.52;;;4.53;;
19137;SDS011;68178;52.188;5.598;2023-08-17T10:32:21;8.80;;;4.45;;
19137;SDS011;68178;52.188;5.598;2023-08-17T10:34:48;6.80;;;3.88;;
19137;SDS011;68178;52.188;5.598;2023-08-17T10:37:16;9.48;;;4.53;;
19137;SDS011;68178;52.188;5.598;2023-08-17T10:39:47;7.95;;;4.45;;
19137;SDS011;68178;52.188;5.598;2023-08-17T10:42:14;8.50;;;4.35;;
19137;SDS011;68178;52.188;5.598;2023-08-17T10:44:47;9.27;;;4.50;;
19137;SDS011;68178;52.188;5.598;2023-08-17T10:47:26;7.72;;;4.00;;
19137;SDS011;68178;52.188;5.598;2023-08-17T10:49:57;12.05;;;4.38;;
19137;SDS011;68178;52.188;5.598;2023-08-17T10:52:34;8.23;;;4.70;;
19137;SDS011;68178;52.188;5.598;2023-08-17T10:55:20;9.45;;;4.53;;
19137;SDS011;68178;52.188;5.598;2023-08-17T10:58:05;9.77;;;4.28;;
19137;SDS011;68178;52.188;5.598;2023-08-17T11:00:34;7.72;;;4.22;;
19137;SDS011;68178;52.188;5.598;2023-08-17T11:03:05;7.10;;;4.13;;
19137;SDS011;68178;52.188;5.598;2023-08-17T11:05:42;8.63;;;3.90;;
19137;SDS011;68178;52.188;5.598;2023-08-17T11:13:32;11.07;;;4.10;;
19137;SDS011;68178;52.188;5.598;2023-08-17T11:15:59;7.40;;;4.38;;
19137;SDS011;68178;52.188;5.598;2023-08-17T11:18:25;9.93;;;4.05;;
19137;SDS011;68178;52.188;5.598;2023-08-17T11:20:51;8.20;;;3.88;;
19137;SDS011;68178;52.188;5.598;2023-08-17T11:23:17;6.78;;;3.80;;
19137;SDS011;68178;52.188;5.598;2023-08-17T11:25:44;9.20;;;4.40;;
19137;SDS011;68178;52.188;5.598;2023-08-17T11:28:11;8.85;;;4.15;;
19137;SDS011;68178;52.188;5.598;2023-08-17T11:30:39;9.55;;;4.03;;
19137;SDS011;68178;52.188;5.598;2023-08-17T11:33:05;8.00;;;4.45;;
19137;SDS011;68178;52.188;5.598;2023-08-17T11:35:32;5.88;;;3.63;;
19137;SDS011;68178;52.188;5.598;2023-08-17T11:37:57;5.93;;;3.70;;
19137;SDS011;68178;52.188;5.598;2023-08-17T11:40:24;7.50;;;4.22;;
19137;SDS011;68178;52.188;5.598;2023-08-17T11:42:51;4.57;;;3.00;;
19137;SDS011;68178;52.188;5.598;2023-08-17T11:45:17;6.90;;;4.10;;
19137;SDS011;68178;52.188;5.598;2023-08-17T11:47:43;8.32;;;4.20;;
19137;SDS011;68178;52.188;5.598;2023-08-17T11:50:10;5.28;;;4.30;;
19137;SDS011;68178;52.188;5.598;2023-08-17T11:52:36;8.00;;;4.60;;
19137;SDS011;68178;52.188;5.598;2023-08-17T11:55:02;11.77;;;4.50;;
19137;SDS011;68178;52.188;5.598;2023-08-17T11:57:30;8.52;;;4.40;;
19137;SDS011;68178;52.188;5.598;2023-08-17T11:59:57;9.05;;;3.95;;
19137;SDS011;68178;52.188;5.598;2023-08-17T12:02:24;8.85;;;4.50;;
19137;SDS011;68178;52.188;5.598;2023-08-17T12:04:51;9.57;;;4.22;;
19137;SDS011;68178;52.188;5.598;2023-08-17T12:07:17;5.10;;;4.20;;
19137;SDS011;68178;52.188;5.598;2023-08-17T12:09:43;5.70;;;4.40;;
19137;SDS011;68178;52.188;5.598;2023-08-17T12:12:13;5.78;;;4.68;;
19137;SDS011;68178;52.188;5.598;2023-08-17T12:14:42;7.45;;;3.97;;
19137;SDS011;68178;52.188;5.598;2023-08-17T12:17:14;5.43;;;3.88;;
19137;SDS011;68178;52.188;5.598;2023-08-17T12:19:43;6.60;;;3.65;;
19137;SDS011;68178;52.188;5.598;2023-08-17T12:22:09;5.97;;;4.30;;
19137;SDS011;68178;52.188;5.598;2023-08-17T12:24:43;5.45;;;4.20;;
19137;SDS011;68178;52.188;5.598;2023-08-17T12:27:09;5.05;;;4.53;;
19137;SDS011;68178;52.188;5.598;2023-08-17T12:29:47;7.47;;;4.53;;
19137;SDS011;68178;52.188;5.598;2023-08-17T12:32:14;5.57;;;4.25;;
19137;SDS011;68178;52.188;5.598;2023-08-17T12:34:41;8.57;;;3.97;;
19137;SDS011;68178;52.188;5.598;2023-08-17T12:37:10;5.28;;;3.60;;
19137;SDS011;68178;52.188;5.598;2023-08-17T12:39:36;4.85;;;3.83;;
19137;SDS011;68178;52.188;5.598;2023-08-17T12:42:03;4.40;;;3.78;;
19137;SDS011;68178;52.188;5.598;2023-08-17T12:44:29;4.32;;;3.83;;
19137;SDS011;68178;52.188;5.598;2023-08-17T12:46:54;7.32;;;3.42;;
19137;SDS011;68178;52.188;5.598;2023-08-17T12:49:20;5.18;;;3.63;;
19137;SDS011;68178;52.188;5.598;2023-08-17T12:51:45;6.10;;;3.67;;
19137;SDS011;68178;52.188;5.598;2023-08-17T12:54:11;5.70;;;3.92;;
19137;SDS011;68178;52.188;5.598;2023-08-17T12:56:37;4.47;;;3.08;;
19137;SDS011;68178;52.188;5.598;2023-08-17T12:59:02;7.47;;;3.95;;
19137;SDS011;68178;52.188;5.598;2023-08-17T13:01:28;4.65;;;3.33;;
19137;SDS011;68178;52.188;5.598;2023-08-17T13:03:53;5.65;;;3.63;;
19137;SDS011;68178;52.188;5.598;2023-08-17T13:06:19;7.57;;;3.60;;
19137;SDS011;68178;52.188;5.598;2023-08-17T13:08:45;5.95;;;3.70;;
19137;SDS011;68178;52.188;5.598;2023-08-17T13:11:10;4.55;;;3.92;;
19137;SDS011;68178;52.188;5.598;2023-08-17T13:13:36;4.22;;;3.72;;
19137;SDS011;68178;52.188;5.598;2023-08-17T13:16:02;9.00;;;4.22;;
19137;SDS011;68178;52.188;5.598;2023-08-17T13:18:28;4.25;;;3.45;;
19137;SDS011;68178;52.188;5.598;2023-08-17T13:20:54;5.88;;;4.07;;
19137;SDS011;68178;52.188;5.598;2023-08-17T13:23:19;3.63;;;3.28;;
19137;SDS011;68178;52.188;5.598;2023-08-17T13:25:45;5.13;;;4.35;;
19137;SDS011;68178;52.188;5.598;2023-08-17T13:28:11;5.95;;;4.00;;
19137;SDS011;68178;52.188;5.598;2023-08-17T13:30:37;5.97;;;4.10;;
19137;SDS011;68178;52.188;5.598;2023-08-17T13:33:03;4.95;;;4.10;;
19137;SDS011;68178;52.188;5.598;2023-08-17T13:35:31;7.40;;;4.10;;
19137;SDS011;68178;52.188;5.598;2023-08-17T13:37:57;4.20;;;3.80;;
19137;SDS011;68178;52.188;5.598;2023-08-17T13:40:22;6.88;;;4.32;;
19137;SDS011;68178;52.188;5.598;2023-08-17T13:42:48;5.70;;;4.60;;
19137;SDS011;68178;52.188;5.598;2023-08-17T13:45:14;6.57;;;4.45;;
19137;SDS011;68178;52.188;5.598;2023-08-17T13:47:40;9.00;;;4.78;;
19137;SDS011;68178;52.188;5.598;2023-08-17T13:50:06;4.97;;;4.47;;
19137;SDS011;68178;52.188;5.598;2023-08-17T13:52:32;6.75;;;4.72;;
19137;SDS011;68178;52.188;5.598;2023-08-17T13:54:58;6.22;;;4.55;;
19137;SDS011;68178;52.188;5.598;2023-08-17T13:57:23;6.63;;;4.82;;
19137;SDS011;68178;52.188;5.598;2023-08-17T13:59:49;7.40;;;4.95;;
19137;SDS011;68178;52.188;5.598;2023-08-17T14:02:15;6.63;;;4.38;;
19137;SDS011;68178;52.188;5.598;2023-08-17T14:04:41;6.28;;;5.10;;
19137;SDS011;68178;52.188;5.598;2023-08-17T14:07:06;8.90;;;5.20;;
19137;SDS011;68178;52.188;5.598;2023-08-17T14:09:32;6.60;;;4.45;;
19137;SDS011;68178;52.188;5.598;2023-08-17T14:12:00;6.75;;;4.82;;
19137;SDS011;68178;52.188;5.598;2023-08-17T14:14:26;5.65;;;4.82;;
19137;SDS011;68178;52.188;5.598;2023-08-17T14:16:52;6.18;;;4.38;;
19137;SDS011;68178;52.188;5.598;2023-08-17T14:19:18;7.90;;;4.63;;
19137;SDS011;68178;52.188;5.598;2023-08-17T14:21:43;8.10;;;4.70;;
19137;SDS011;68178;52.188;5.598;2023-08-17T14:24:09;5.15;;;4.43;;
19137;SDS011;68178;52.188;5.598;2023-08-17T14:26:34;8.50;;;4.45;;
19137;SDS011;68178;52.188;5.598;2023-08-17T14:29:00;8.65;;;4.97;;
19137;SDS011;68178;52.188;5.598;2023-08-17T14:31:26;7.30;;;4.40;;
19137;SDS011;68178;52.188;5.598;2023-08-17T14:33:51;5.15;;;4.30;;
19137;SDS011;68178;52.188;5.598;2023-08-17T14:36:17;9.07;;;5.40;;
19137;SDS011;68178;52.188;5.598;2023-08-17T14:38:42;7.15;;;4.93;;
19137;SDS011;68178;52.188;5.598;2023-08-17T14:41:08;6.35;;;5.70;;
19137;SDS011;68178;52.188;5.598;2023-08-17T14:43:34;8.05;;;4.68;;
19137;SDS011;68178;52.188;5.598;2023-08-17T14:46:00;8.52;;;5.22;;
19137;SDS011;68178;52.188;5.598;2023-08-17T14:48:25;7.70;;;5.88;;
19137;SDS011;68178;52.188;5.598;2023-08-17T14:50:51;6.60;;;6.00;;
19137;SDS011;68178;52.188;5.598;2023-08-17T14:53:17;7.68;;;5.65;;